sensor_id;sensor_type;location;lat;lon;timestamp;temperature;humidity
6788;DHT22;3431;47.966;10.268;2022-08-21T00:00:13;15.60;99.90
6788;DHT22;3431;47.966;10.268;2022-08-21T00:00:37;15.60;99.90
6788;DHT22;3431;47.966;10.268;2022-08-21T00:01:01;15.60;99.90
6788;DHT22;3431;47.966;10.268;2022-08-21T00:01:27;15.60;99.90
6788;DHT22;3431;47.966;10.268;2022-08-21T00:01:50;15.60;99.90
6788;DHT22;3431;47.966;10.268;2022-08-21T00:02:16;15.60;99.90
6788;DHT22;3431;47.966;10.268;2022-08-21T00:02:43;15.60;99.90
6788;DHT22;3431;47.966;10.268;2022-08-21T00:03:07;15.60;99.90
6788;DHT22;3431;47.966;10.268;2022-08-21T00:03:31;15.60;99.90
6788;DHT22;3431;47.966;10.268;2022-08-21T00:03:54;15.70;99.90
6788;DHT22;3431;47.966;10.268;2022-08-21T00:04:16;15.70;99.90
6788;DHT22;3431;47.966;10.268;2022-08-21T00:04:38;15.70;99.90
6788;DHT22;3431;47.966;10.268;2022-08-21T00:05:00;15.70;99.90
6788;DHT22;3431;47.966;10.268;2022-08-21T00:05:24;15.70;99.90
6788;DHT22;3431;47.966;10.268;2022-08-21T00:05:48;15.70;99.90
6788;DHT22;3431;47.966;10.268;2022-08-21T00:06:11;15.70;99.90
6788;DHT22;3431;47.966;10.268;2022-08-21T00:06:34;15.70;99.90
6788;DHT22;3431;47.966;10.268;2022-08-21T00:06:56;15.60;99.90
6788;DHT22;3431;47.966;10.268;2022-08-21T00:07:18;15.70;99.90
6788;DHT22;3431;47.966;10.268;2022-08-21T00:07:40;15.70;99.90
6788;DHT22;3431;47.966;10.268;2022-08-21T00:08:04;15.70;99.90
6788;DHT22;3431;47.966;10.268;2022-08-21T00:08:25;15.70;99.90
6788;DHT22;3431;47.966;10.268;2022-08-21T00:08:47;15.70;99.90
6788;DHT22;3431;47.966;10.268;2022-08-21T00:09:12;15.70;99.90
6788;DHT22;3431;47.966;10.268;2022-08-21T00:09:34;15.70;99.90
6788;DHT22;3431;47.966;10.268;2022-08-21T00:09:55;15.70;99.90
6788;DHT22;3431;47.966;10.268;2022-08-21T00:10:18;15.70;99.90
6788;DHT22;3431;47.966;10.268;2022-08-21T00:10:40;15.70;99.90
6788;DHT22;3431;47.966;10.268;2022-08-21T00:11:06;15.70;99.90
6788;DHT22;3431;47.966;10.268;2022-08-21T00:11:29;15.70;99.90
6788;DHT22;3431;47.966;10.268;2022-08-21T00:11:50;15.70;99.90
6788;DHT22;3431;47.966;10.268;2022-08-21T00:12:12;15.70;99.90
6788;DHT22;3431;47.966;10.268;2022-08-21T00:12:34;15.70;99.90
6788;DHT22;3431;47.966;10.268;2022-08-21T00:12:57;15.70;99.90
6788;DHT22;3431;47.966;10.268;2022-08-21T00:13:19;15.70;99.90
6788;DHT22;3431;47.966;10.268;2022-08-21T00:13:41;15.70;99.90
6788;DHT22;3431;47.966;10.268;2022-08-21T00:14:04;15.70;99.90
6788;DHT22;3431;47.966;10.268;2022-08-21T00:14:27;15.70;99.90
6788;DHT22;3431;47.966;10.268;2022-08-21T00:14:49;15.70;99.90
6788;DHT22;3431;47.966;10.268;2022-08-21T00:15:13;15.70;99.90
6788;DHT22;3431;47.966;10.268;2022-08-21T00:15:36;15.70;99.90
6788;DHT22;3431;47.966;10.268;2022-08-21T00:15:59;15.70;99.90
6788;DHT22;3431;47.966;10.268;2022-08-21T00:16:21;15.70;99.90
6788;DHT22;3431;47.966;10.268;2022-08-21T00:16:44;15.70;99.90
6788;DHT22;3431;47.966;10.268;2022-08-21T00:17:06;15.70;99.90
6788;DHT22;3431;47.966;10.268;2022-08-21T00:17:29;15.70;99.90
6788;DHT22;3431;47.966;10.268;2022-08-21T00:17:50;15.70;99.90
6788;DHT22;3431;47.966;10.268;2022-08-21T00:18:12;15.70;99.90
6788;DHT22;3431;47.966;10.268;2022-08-21T00:18:34;15.70;99.90
6788;DHT22;3431;47.966;10.268;2022-08-21T00:18:57;15.70;99.90
6788;DHT22;3431;47.966;10.268;2022-08-21T00:19:18;15.70;99.90
6788;DHT22;3431;47.966;10.268;2022-08-21T00:19:40;15.70;99.90
6788;DHT22;3431;47.966;10.268;2022-08-21T00:20:02;15.70;99.90
6788;DHT22;3431;47.966;10.268;2022-08-21T00:20:25;15.70;99.90
6788;DHT22;3431;47.966;10.268;2022-08-21T00:20:48;15.70;99.90
6788;DHT22;3431;47.966;10.268;2022-08-21T00:21:11;15.70;99.90
6788;DHT22;3431;47.966;10.268;2022-08-21T00:21:33;15.60;99.90
6788;DHT22;3431;47.966;10.268;2022-08-21T00:21:56;15.70;99.90
6788;DHT22;3431;47.966;10.268;2022-08-21T00:22:17;15.70;99.90
6788;DHT22;3431;47.966;10.268;2022-08-21T00:22:39;15.60;99.90
6788;DHT22;3431;47.966;10.268;2022-08-21T00:23:02;15.60;99.90
6788;DHT22;3431;47.966;10.268;2022-08-21T00:23:25;15.70;99.90
6788;DHT22;3431;47.966;10.268;2022-08-21T00:23:47;15.60;99.90
6788;DHT22;3431;47.966;10.268;2022-08-21T00:24:09;15.70;99.90
6788;DHT22;3431;47.966;10.268;2022-08-21T00:24:30;15.60;99.90
6788;DHT22;3431;47.966;10.268;2022-08-21T00:24:52;15.60;99.90
6788;DHT22;3431;47.966;10.268;2022-08-21T00:25:15;15.60;99.90
6788;DHT22;3431;47.966;10.268;2022-08-21T00:25:37;15.70;99.90
6788;DHT22;3431;47.966;10.268;2022-08-21T00:25:59;15.70;99.90
6788;DHT22;3431;47.966;10.268;2022-08-21T00:26:20;15.70;99.90
6788;DHT22;3431;47.966;10.268;2022-08-21T00:26:44;15.70;99.90
6788;DHT22;3431;47.966;10.268;2022-08-21T00:27:06;15.70;99.90
6788;DHT22;3431;47.966;10.268;2022-08-21T00:27:28;15.70;99.90
6788;DHT22;3431;47.966;10.268;2022-08-21T00:27:50;15.70;99.90
6788;DHT22;3431;47.966;10.268;2022-08-21T00:28:13;15.60;99.90
6788;DHT22;3431;47.966;10.268;2022-08-21T00:28:35;15.70;99.90
6788;DHT22;3431;47.966;10.268;2022-08-21T00:28:56;15.70;99.90
6788;DHT22;3431;47.966;10.268;2022-08-21T00:29:18;15.70;99.90
6788;DHT22;3431;47.966;10.268;2022-08-21T00:29:41;15.70;99.90
6788;DHT22;3431;47.966;10.268;2022-08-21T00:30:04;15.70;99.90
6788;DHT22;3431;47.966;10.268;2022-08-21T00:30:26;15.70;99.90
6788;DHT22;3431;47.966;10.268;2022-08-21T00:30:48;15.60;99.90
6788;DHT22;3431;47.966;10.268;2022-08-21T00:31:10;15.60;99.90
6788;DHT22;3431;47.966;10.268;2022-08-21T00:31:32;15.60;99.90
6788;DHT22;3431;47.966;10.268;2022-08-21T00:31:54;15.60;99.90
6788;DHT22;3431;47.966;10.268;2022-08-21T00:32:20;15.60;99.90
6788;DHT22;3431;47.966;10.268;2022-08-21T00:32:42;15.60;99.90
6788;DHT22;3431;47.966;10.268;2022-08-21T00:33:07;15.60;99.90
6788;DHT22;3431;47.966;10.268;2022-08-21T00:33:30;15.60;99.90
6788;DHT22;3431;47.966;10.268;2022-08-21T00:33:52;15.60;99.90
6788;DHT22;3431;47.966;10.268;2022-08-21T00:34:13;15.60;99.90
6788;DHT22;3431;47.966;10.268;2022-08-21T00:34:36;15.60;99.90
6788;DHT22;3431;47.966;10.268;2022-08-21T00:34:58;15.60;99.90
6788;DHT22;3431;47.966;10.268;2022-08-21T00:35:23;15.60;99.90
6788;DHT22;3431;47.966;10.268;2022-08-21T00:35:44;15.60;99.90
6788;DHT22;3431;47.966;10.268;2022-08-21T00:36:08;15.60;99.90
6788;DHT22;3431;47.966;10.268;2022-08-21T00:36:29;15.60;99.90
6788;DHT22;3431;47.966;10.268;2022-08-21T00:36:51;15.60;99.90
6788;DHT22;3431;47.966;10.268;2022-08-21T00:37:13;15.60;99.90
6788;DHT22;3431;47.966;10.268;2022-08-21T00:37:34;15.50;99.90
6788;DHT22;3431;47.966;10.268;2022-08-21T00:37:57;15.50;99.90
6788;DHT22;3431;47.966;10.268;2022-08-21T00:38:19;15.50;99.90
6788;DHT22;3431;47.966;10.268;2022-08-21T00:38:41;15.50;99.90
6788;DHT22;3431;47.966;10.268;2022-08-21T00:39:04;15.50;99.90
6788;DHT22;3431;47.966;10.268;2022-08-21T00:39:26;15.50;99.90
6788;DHT22;3431;47.966;10.268;2022-08-21T00:39:48;15.50;99.90
6788;DHT22;3431;47.966;10.268;2022-08-21T00:40:16;15.50;99.90
6788;DHT22;3431;47.966;10.268;2022-08-21T00:40:43;15.50;99.90
6788;DHT22;3431;47.966;10.268;2022-08-21T00:41:09;15.50;99.90
6788;DHT22;3431;47.966;10.268;2022-08-21T00:41:31;15.50;99.90
6788;DHT22;3431;47.966;10.268;2022-08-21T00:41:54;15.50;99.90
6788;DHT22;3431;47.966;10.268;2022-08-21T00:42:16;15.50;99.90
6788;DHT22;3431;47.966;10.268;2022-08-21T00:42:39;15.50;99.90
6788;DHT22;3431;47.966;10.268;2022-08-21T00:43:02;15.50;99.90
6788;DHT22;3431;47.966;10.268;2022-08-21T00:43:27;15.50;99.90
6788;DHT22;3431;47.966;10.268;2022-08-21T00:43:49;15.50;99.90
6788;DHT22;3431;47.966;10.268;2022-08-21T00:44:13;15.50;99.90
6788;DHT22;3431;47.966;10.268;2022-08-21T00:44:35;15.50;99.90
6788;DHT22;3431;47.966;10.268;2022-08-21T00:44:57;15.50;99.90
6788;DHT22;3431;47.966;10.268;2022-08-21T00:45:19;15.50;99.90
6788;DHT22;3431;47.966;10.268;2022-08-21T00:45:41;15.50;99.90
6788;DHT22;3431;47.966;10.268;2022-08-21T00:46:05;15.50;99.90
6788;DHT22;3431;47.966;10.268;2022-08-21T00:46:27;15.50;99.90
6788;DHT22;3431;47.966;10.268;2022-08-21T00:46:49;15.50;99.90
6788;DHT22;3431;47.966;10.268;2022-08-21T00:47:11;15.50;99.90
6788;DHT22;3431;47.966;10.268;2022-08-21T00:47:34;15.60;99.90
6788;DHT22;3431;47.966;10.268;2022-08-21T00:47:56;15.50;99.90
6788;DHT22;3431;47.966;10.268;2022-08-21T00:48:17;15.60;99.90
6788;DHT22;3431;47.966;10.268;2022-08-21T00:48:39;15.60;99.90
6788;DHT22;3431;47.966;10.268;2022-08-21T00:49:03;15.50;99.90
6788;DHT22;3431;47.966;10.268;2022-08-21T00:49:24;15.50;99.90
6788;DHT22;3431;47.966;10.268;2022-08-21T00:49:46;15.50;99.90
6788;DHT22;3431;47.966;10.268;2022-08-21T00:50:09;15.50;99.90
6788;DHT22;3431;47.966;10.268;2022-08-21T00:50:35;15.50;99.90
6788;DHT22;3431;47.966;10.268;2022-08-21T00:51:03;15.50;99.90
6788;DHT22;3431;47.966;10.268;2022-08-21T00:51:33;15.50;99.90
6788;DHT22;3431;47.966;10.268;2022-08-21T00:51:59;15.50;99.90
6788;DHT22;3431;47.966;10.268;2022-08-21T00:52:26;15.50;99.90
6788;DHT22;3431;47.966;10.268;2022-08-21T00:52:50;15.50;99.90
6788;DHT22;3431;47.966;10.268;2022-08-21T00:53:12;15.50;99.90
6788;DHT22;3431;47.966;10.268;2022-08-21T00:53:36;15.50;99.90
6788;DHT22;3431;47.966;10.268;2022-08-21T00:54:01;15.50;99.90
6788;DHT22;3431;47.966;10.268;2022-08-21T00:54:25;15.50;99.90
6788;DHT22;3431;47.966;10.268;2022-08-21T00:54:48;15.50;99.90
6788;DHT22;3431;47.966;10.268;2022-08-21T00:55:11;15.50;99.90
6788;DHT22;3431;47.966;10.268;2022-08-21T00:55:34;15.50;99.90
6788;DHT22;3431;47.966;10.268;2022-08-21T00:55:58;15.40;99.90
6788;DHT22;3431;47.966;10.268;2022-08-21T00:56:22;15.40;99.90
6788;DHT22;3431;47.966;10.268;2022-08-21T00:56:48;15.50;99.90
6788;DHT22;3431;47.966;10.268;2022-08-21T00:57:14;15.50;99.90
6788;DHT22;3431;47.966;10.268;2022-08-21T00:57:42;15.50;99.90
6788;DHT22;3431;47.966;10.268;2022-08-21T00:58:06;15.50;99.90
6788;DHT22;3431;47.966;10.268;2022-08-21T00:58:29;15.50;99.90
6788;DHT22;3431;47.966;10.268;2022-08-21T00:58:54;15.50;99.90
6788;DHT22;3431;47.966;10.268;2022-08-21T00:59:20;15.50;99.90
6788;DHT22;3431;47.966;10.268;2022-08-21T00:59:44;15.50;99.90
6788;DHT22;3431;47.966;10.268;2022-08-21T01:00:12;15.50;99.90
6788;DHT22;3431;47.966;10.268;2022-08-21T01:00:36;15.50;99.90
6788;DHT22;3431;47.966;10.268;2022-08-21T01:01:01;15.50;99.90
6788;DHT22;3431;47.966;10.268;2022-08-21T01:01:45;15.50;99.90
6788;DHT22;3431;47.966;10.268;2022-08-21T01:02:08;15.50;99.90
6788;DHT22;3431;47.966;10.268;2022-08-21T01:02:31;15.50;99.90
6788;DHT22;3431;47.966;10.268;2022-08-21T01:02:53;15.50;99.90
6788;DHT22;3431;47.966;10.268;2022-08-21T01:03:17;15.50;99.90
6788;DHT22;3431;47.966;10.268;2022-08-21T01:03:39;15.50;99.90
6788;DHT22;3431;47.966;10.268;2022-08-21T01:04:02;15.50;99.90
6788;DHT22;3431;47.966;10.268;2022-08-21T01:04:24;15.50;99.90
6788;DHT22;3431;47.966;10.268;2022-08-21T01:04:46;15.50;99.90
6788;DHT22;3431;47.966;10.268;2022-08-21T01:05:09;15.50;99.90
6788;DHT22;3431;47.966;10.268;2022-08-21T01:05:31;15.40;99.90
6788;DHT22;3431;47.966;10.268;2022-08-21T01:05:54;15.50;99.90
6788;DHT22;3431;47.966;10.268;2022-08-21T01:06:16;15.50;99.90
6788;DHT22;3431;47.966;10.268;2022-08-21T01:06:38;15.50;99.90
6788;DHT22;3431;47.966;10.268;2022-08-21T01:07:00;15.40;99.90
6788;DHT22;3431;47.966;10.268;2022-08-21T01:07:23;15.50;99.90
6788;DHT22;3431;47.966;10.268;2022-08-21T01:07:45;15.40;99.90
6788;DHT22;3431;47.966;10.268;2022-08-21T01:08:08;15.40;99.90
6788;DHT22;3431;47.966;10.268;2022-08-21T01:08:32;15.40;99.90
6788;DHT22;3431;47.966;10.268;2022-08-21T01:08:54;15.40;99.90
6788;DHT22;3431;47.966;10.268;2022-08-21T01:09:16;15.40;99.90
6788;DHT22;3431;47.966;10.268;2022-08-21T01:09:39;15.40;99.90
6788;DHT22;3431;47.966;10.268;2022-08-21T01:10:03;15.40;99.90
6788;DHT22;3431;47.966;10.268;2022-08-21T01:10:25;15.40;99.90
6788;DHT22;3431;47.966;10.268;2022-08-21T01:10:48;15.40;99.90
6788;DHT22;3431;47.966;10.268;2022-08-21T01:11:10;15.40;99.90
6788;DHT22;3431;47.966;10.268;2022-08-21T01:11:31;15.40;99.90
6788;DHT22;3431;47.966;10.268;2022-08-21T01:11:54;15.40;99.90
6788;DHT22;3431;47.966;10.268;2022-08-21T01:12:18;15.40;99.90
6788;DHT22;3431;47.966;10.268;2022-08-21T01:12:40;15.40;99.90
6788;DHT22;3431;47.966;10.268;2022-08-21T01:13:04;15.40;99.90
6788;DHT22;3431;47.966;10.268;2022-08-21T01:13:29;15.40;99.90
6788;DHT22;3431;47.966;10.268;2022-08-21T01:13:52;15.40;99.90
6788;DHT22;3431;47.966;10.268;2022-08-21T01:14:15;15.40;99.90
6788;DHT22;3431;47.966;10.268;2022-08-21T01:14:40;15.40;99.90
6788;DHT22;3431;47.966;10.268;2022-08-21T01:15:05;15.40;99.90
6788;DHT22;3431;47.966;10.268;2022-08-21T01:15:30;15.40;99.90
6788;DHT22;3431;47.966;10.268;2022-08-21T01:15:54;15.40;99.90
6788;DHT22;3431;47.966;10.268;2022-08-21T01:16:20;15.40;99.90
6788;DHT22;3431;47.966;10.268;2022-08-21T01:16:45;15.40;99.90
6788;DHT22;3431;47.966;10.268;2022-08-21T01:17:08;15.40;99.90
6788;DHT22;3431;47.966;10.268;2022-08-21T01:17:31;15.40;99.90
6788;DHT22;3431;47.966;10.268;2022-08-21T01:17:54;15.40;99.90
6788;DHT22;3431;47.966;10.268;2022-08-21T01:18:16;15.40;99.90
6788;DHT22;3431;47.966;10.268;2022-08-21T01:18:38;15.40;99.90
6788;DHT22;3431;47.966;10.268;2022-08-21T01:18:59;15.40;99.90
6788;DHT22;3431;47.966;10.268;2022-08-21T01:19:22;15.40;99.90
6788;DHT22;3431;47.966;10.268;2022-08-21T01:19:44;15.40;99.90
6788;DHT22;3431;47.966;10.268;2022-08-21T01:20:09;15.50;99.90
6788;DHT22;3431;47.966;10.268;2022-08-21T01:20:32;15.50;99.90
6788;DHT22;3431;47.966;10.268;2022-08-21T01:21:06;15.40;99.90
6788;DHT22;3431;47.966;10.268;2022-08-21T01:21:29;15.50;99.90
6788;DHT22;3431;47.966;10.268;2022-08-21T01:21:51;15.50;99.90
6788;DHT22;3431;47.966;10.268;2022-08-21T01:22:13;15.40;99.90
6788;DHT22;3431;47.966;10.268;2022-08-21T01:22:34;15.40;99.90
6788;DHT22;3431;47.966;10.268;2022-08-21T01:22:56;15.40;99.90
6788;DHT22;3431;47.966;10.268;2022-08-21T01:23:19;15.40;99.90
6788;DHT22;3431;47.966;10.268;2022-08-21T01:23:44;15.40;99.90
6788;DHT22;3431;47.966;10.268;2022-08-21T01:24:06;15.40;99.90
6788;DHT22;3431;47.966;10.268;2022-08-21T01:24:28;15.40;99.90
6788;DHT22;3431;47.966;10.268;2022-08-21T01:24:52;15.40;99.90
6788;DHT22;3431;47.966;10.268;2022-08-21T01:25:16;15.40;99.90
6788;DHT22;3431;47.966;10.268;2022-08-21T01:25:38;15.40;99.90
6788;DHT22;3431;47.966;10.268;2022-08-21T01:26:00;15.40;99.90
6788;DHT22;3431;47.966;10.268;2022-08-21T01:26:26;15.40;99.90
6788;DHT22;3431;47.966;10.268;2022-08-21T01:26:49;15.40;99.90
6788;DHT22;3431;47.966;10.268;2022-08-21T01:27:11;15.40;99.90
6788;DHT22;3431;47.966;10.268;2022-08-21T01:27:32;15.40;99.90
6788;DHT22;3431;47.966;10.268;2022-08-21T01:27:55;15.40;99.90
6788;DHT22;3431;47.966;10.268;2022-08-21T01:28:19;15.40;99.90
6788;DHT22;3431;47.966;10.268;2022-08-21T01:28:44;15.40;99.90
6788;DHT22;3431;47.966;10.268;2022-08-21T01:29:13;15.40;99.90
6788;DHT22;3431;47.966;10.268;2022-08-21T01:29:38;15.40;99.90
6788;DHT22;3431;47.966;10.268;2022-08-21T01:30:06;15.40;99.90
6788;DHT22;3431;47.966;10.268;2022-08-21T01:30:34;15.40;99.90
6788;DHT22;3431;47.966;10.268;2022-08-21T01:30:56;15.40;99.90
6788;DHT22;3431;47.966;10.268;2022-08-21T01:31:19;15.40;99.90
6788;DHT22;3431;47.966;10.268;2022-08-21T01:31:44;15.40;99.90
6788;DHT22;3431;47.966;10.268;2022-08-21T01:32:09;15.40;99.90
6788;DHT22;3431;47.966;10.268;2022-08-21T01:32:31;15.40;99.90
6788;DHT22;3431;47.966;10.268;2022-08-21T01:32:53;15.40;99.90
6788;DHT22;3431;47.966;10.268;2022-08-21T01:33:16;15.40;99.90
6788;DHT22;3431;47.966;10.268;2022-08-21T01:33:39;15.40;99.90
6788;DHT22;3431;47.966;10.268;2022-08-21T01:34:01;15.40;99.90
6788;DHT22;3431;47.966;10.268;2022-08-21T01:34:23;15.40;99.90
6788;DHT22;3431;47.966;10.268;2022-08-21T01:34:48;15.40;99.90
6788;DHT22;3431;47.966;10.268;2022-08-21T01:35:10;15.40;99.90
6788;DHT22;3431;47.966;10.268;2022-08-21T01:35:32;15.40;99.90
6788;DHT22;3431;47.966;10.268;2022-08-21T01:35:54;15.40;99.90
6788;DHT22;3431;47.966;10.268;2022-08-21T01:36:18;15.40;99.90
6788;DHT22;3431;47.966;10.268;2022-08-21T01:36:39;15.40;99.90
6788;DHT22;3431;47.966;10.268;2022-08-21T01:37:01;15.40;99.90
6788;DHT22;3431;47.966;10.268;2022-08-21T01:37:23;15.40;99.90
6788;DHT22;3431;47.966;10.268;2022-08-21T01:37:46;15.40;99.90
6788;DHT22;3431;47.966;10.268;2022-08-21T01:38:08;15.40;99.90
6788;DHT22;3431;47.966;10.268;2022-08-21T01:38:31;15.40;99.90
6788;DHT22;3431;47.966;10.268;2022-08-21T01:38:52;15.40;99.90
6788;DHT22;3431;47.966;10.268;2022-08-21T01:39:15;15.40;99.90
6788;DHT22;3431;47.966;10.268;2022-08-21T01:39:38;15.40;99.90
6788;DHT22;3431;47.966;10.268;2022-08-21T01:40:00;15.40;99.90
6788;DHT22;3431;47.966;10.268;2022-08-21T01:40:22;15.40;99.90
6788;DHT22;3431;47.966;10.268;2022-08-21T01:40:44;15.40;99.90
6788;DHT22;3431;47.966;10.268;2022-08-21T01:41:06;15.40;99.90
6788;DHT22;3431;47.966;10.268;2022-08-21T01:41:28;15.40;99.90
6788;DHT22;3431;47.966;10.268;2022-08-21T01:41:49;15.40;99.90
6788;DHT22;3431;47.966;10.268;2022-08-21T01:42:13;15.40;99.90
6788;DHT22;3431;47.966;10.268;2022-08-21T01:42:36;15.40;99.90
6788;DHT22;3431;47.966;10.268;2022-08-21T01:42:58;15.40;99.90
6788;DHT22;3431;47.966;10.268;2022-08-21T01:43:20;15.40;99.90
6788;DHT22;3431;47.966;10.268;2022-08-21T01:43:43;15.40;99.90
6788;DHT22;3431;47.966;10.268;2022-08-21T01:44:05;15.40;99.90
6788;DHT22;3431;47.966;10.268;2022-08-21T01:44:27;15.40;99.90
6788;DHT22;3431;47.966;10.268;2022-08-21T01:44:49;15.40;99.90
6788;DHT22;3431;47.966;10.268;2022-08-21T01:45:12;15.40;99.90
6788;DHT22;3431;47.966;10.268;2022-08-21T01:45:34;15.40;99.90
6788;DHT22;3431;47.966;10.268;2022-08-21T01:45:56;15.40;99.90
6788;DHT22;3431;47.966;10.268;2022-08-21T01:46:18;15.40;99.90
6788;DHT22;3431;47.966;10.268;2022-08-21T01:46:41;15.40;99.90
6788;DHT22;3431;47.966;10.268;2022-08-21T01:47:05;15.40;99.90
6788;DHT22;3431;47.966;10.268;2022-08-21T01:47:28;15.30;99.90
6788;DHT22;3431;47.966;10.268;2022-08-21T01:47:50;15.40;99.90
6788;DHT22;3431;47.966;10.268;2022-08-21T01:48:12;15.30;99.90
6788;DHT22;3431;47.966;10.268;2022-08-21T01:48:34;15.30;99.90
6788;DHT22;3431;47.966;10.268;2022-08-21T01:48:56;15.40;99.90
6788;DHT22;3431;47.966;10.268;2022-08-21T01:49:18;15.40;99.90
6788;DHT22;3431;47.966;10.268;2022-08-21T01:49:42;15.30;99.90
6788;DHT22;3431;47.966;10.268;2022-08-21T01:50:05;15.30;99.90
6788;DHT22;3431;47.966;10.268;2022-08-21T01:50:27;15.40;99.90
6788;DHT22;3431;47.966;10.268;2022-08-21T01:50:49;15.30;99.90
6788;DHT22;3431;47.966;10.268;2022-08-21T01:51:12;15.40;99.90
6788;DHT22;3431;47.966;10.268;2022-08-21T01:51:34;15.40;99.90
6788;DHT22;3431;47.966;10.268;2022-08-21T01:51:56;15.40;99.90
6788;DHT22;3431;47.966;10.268;2022-08-21T01:52:18;15.40;99.90
6788;DHT22;3431;47.966;10.268;2022-08-21T01:52:40;15.30;99.90
6788;DHT22;3431;47.966;10.268;2022-08-21T01:53:03;15.40;99.90
6788;DHT22;3431;47.966;10.268;2022-08-21T01:53:25;15.30;99.90
6788;DHT22;3431;47.966;10.268;2022-08-21T01:53:47;15.30;99.90
6788;DHT22;3431;47.966;10.268;2022-08-21T01:54:09;15.30;99.90
6788;DHT22;3431;47.966;10.268;2022-08-21T01:54:32;15.30;99.90
6788;DHT22;3431;47.966;10.268;2022-08-21T01:54:53;15.30;99.90
6788;DHT22;3431;47.966;10.268;2022-08-21T01:55:16;15.30;99.90
6788;DHT22;3431;47.966;10.268;2022-08-21T01:55:38;15.30;99.90
6788;DHT22;3431;47.966;10.268;2022-08-21T01:56:01;15.30;99.90
6788;DHT22;3431;47.966;10.268;2022-08-21T01:56:24;15.30;99.90
6788;DHT22;3431;47.966;10.268;2022-08-21T01:56:47;15.30;99.90
6788;DHT22;3431;47.966;10.268;2022-08-21T01:57:09;15.30;99.90
6788;DHT22;3431;47.966;10.268;2022-08-21T01:57:32;15.30;99.90
6788;DHT22;3431;47.966;10.268;2022-08-21T01:57:54;15.30;99.90
6788;DHT22;3431;47.966;10.268;2022-08-21T01:58:16;15.30;99.90
6788;DHT22;3431;47.966;10.268;2022-08-21T01:58:37;15.30;99.90
6788;DHT22;3431;47.966;10.268;2022-08-21T01:59:00;15.30;99.90
6788;DHT22;3431;47.966;10.268;2022-08-21T01:59:23;15.30;99.90
6788;DHT22;3431;47.966;10.268;2022-08-21T01:59:45;15.30;99.90
6788;DHT22;3431;47.966;10.268;2022-08-21T02:00:09;15.20;99.90
6788;DHT22;3431;47.966;10.268;2022-08-21T02:00:34;15.20;99.90
6788;DHT22;3431;47.966;10.268;2022-08-21T02:00:57;15.20;99.90
6788;DHT22;3431;47.966;10.268;2022-08-21T02:01:18;15.20;99.90
6788;DHT22;3431;47.966;10.268;2022-08-21T02:01:40;15.20;99.90
6788;DHT22;3431;47.966;10.268;2022-08-21T02:02:03;15.20;99.90
6788;DHT22;3431;47.966;10.268;2022-08-21T02:02:26;15.20;99.90
6788;DHT22;3431;47.966;10.268;2022-08-21T02:02:47;15.20;99.90
6788;DHT22;3431;47.966;10.268;2022-08-21T02:03:09;15.20;99.90
6788;DHT22;3431;47.966;10.268;2022-08-21T02:03:31;15.20;99.90
6788;DHT22;3431;47.966;10.268;2022-08-21T02:03:53;15.20;99.90
6788;DHT22;3431;47.966;10.268;2022-08-21T02:04:15;15.20;99.90
6788;DHT22;3431;47.966;10.268;2022-08-21T02:04:37;15.10;99.90
6788;DHT22;3431;47.966;10.268;2022-08-21T02:04:58;15.10;99.90
6788;DHT22;3431;47.966;10.268;2022-08-21T02:05:21;15.10;99.90
6788;DHT22;3431;47.966;10.268;2022-08-21T02:05:43;15.10;99.90
6788;DHT22;3431;47.966;10.268;2022-08-21T02:06:05;15.10;99.90
6788;DHT22;3431;47.966;10.268;2022-08-21T02:06:28;15.10;99.90
6788;DHT22;3431;47.966;10.268;2022-08-21T02:06:52;15.10;99.90
6788;DHT22;3431;47.966;10.268;2022-08-21T02:07:13;15.10;99.90
6788;DHT22;3431;47.966;10.268;2022-08-21T02:07:37;15.00;99.90
6788;DHT22;3431;47.966;10.268;2022-08-21T02:07:59;15.00;99.90
6788;DHT22;3431;47.966;10.268;2022-08-21T02:08:22;15.00;99.90
6788;DHT22;3431;47.966;10.268;2022-08-21T02:08:44;15.00;99.90
6788;DHT22;3431;47.966;10.268;2022-08-21T02:09:09;15.00;99.90
6788;DHT22;3431;47.966;10.268;2022-08-21T02:09:31;15.00;99.90
6788;DHT22;3431;47.966;10.268;2022-08-21T02:09:54;15.00;99.90
6788;DHT22;3431;47.966;10.268;2022-08-21T02:10:20;15.00;99.90
6788;DHT22;3431;47.966;10.268;2022-08-21T02:10:42;15.00;99.90
6788;DHT22;3431;47.966;10.268;2022-08-21T02:11:04;15.00;99.90
6788;DHT22;3431;47.966;10.268;2022-08-21T02:11:25;15.00;99.90
6788;DHT22;3431;47.966;10.268;2022-08-21T02:11:48;14.90;99.90
6788;DHT22;3431;47.966;10.268;2022-08-21T02:12:10;14.90;99.90
6788;DHT22;3431;47.966;10.268;2022-08-21T02:12:32;14.90;99.90
6788;DHT22;3431;47.966;10.268;2022-08-21T02:12:54;14.90;99.90
6788;DHT22;3431;47.966;10.268;2022-08-21T02:13:17;14.90;99.90
6788;DHT22;3431;47.966;10.268;2022-08-21T02:13:39;14.90;99.90
6788;DHT22;3431;47.966;10.268;2022-08-21T02:14:01;14.90;99.90
6788;DHT22;3431;47.966;10.268;2022-08-21T02:14:23;14.90;99.90
6788;DHT22;3431;47.966;10.268;2022-08-21T02:14:45;14.90;99.90
6788;DHT22;3431;47.966;10.268;2022-08-21T02:15:08;14.90;99.90
6788;DHT22;3431;47.966;10.268;2022-08-21T02:15:30;14.90;99.90
6788;DHT22;3431;47.966;10.268;2022-08-21T02:15:52;14.90;99.90
6788;DHT22;3431;47.966;10.268;2022-08-21T02:16:15;14.90;99.90
6788;DHT22;3431;47.966;10.268;2022-08-21T02:16:37;14.90;99.90
6788;DHT22;3431;47.966;10.268;2022-08-21T02:16:59;14.90;99.90
6788;DHT22;3431;47.966;10.268;2022-08-21T02:17:20;14.90;99.90
6788;DHT22;3431;47.966;10.268;2022-08-21T02:17:45;14.90;99.90
6788;DHT22;3431;47.966;10.268;2022-08-21T02:18:08;14.90;99.90
6788;DHT22;3431;47.966;10.268;2022-08-21T02:18:30;14.90;99.90
6788;DHT22;3431;47.966;10.268;2022-08-21T02:18:52;14.90;99.90
6788;DHT22;3431;47.966;10.268;2022-08-21T02:19:15;14.90;99.90
6788;DHT22;3431;47.966;10.268;2022-08-21T02:19:37;14.90;99.90
6788;DHT22;3431;47.966;10.268;2022-08-21T02:19:59;14.80;99.90
6788;DHT22;3431;47.966;10.268;2022-08-21T02:20:23;14.90;99.90
6788;DHT22;3431;47.966;10.268;2022-08-21T02:20:48;14.90;99.90
6788;DHT22;3431;47.966;10.268;2022-08-21T02:21:10;14.90;99.90
6788;DHT22;3431;47.966;10.268;2022-08-21T02:21:31;14.90;99.90
6788;DHT22;3431;47.966;10.268;2022-08-21T02:21:55;14.80;99.90
6788;DHT22;3431;47.966;10.268;2022-08-21T02:22:17;14.80;99.90
6788;DHT22;3431;47.966;10.268;2022-08-21T02:22:39;14.90;99.90
6788;DHT22;3431;47.966;10.268;2022-08-21T02:23:01;14.90;99.90
6788;DHT22;3431;47.966;10.268;2022-08-21T02:23:23;14.90;99.90
6788;DHT22;3431;47.966;10.268;2022-08-21T02:23:45;14.90;99.90
6788;DHT22;3431;47.966;10.268;2022-08-21T02:24:08;14.90;99.90
6788;DHT22;3431;47.966;10.268;2022-08-21T02:24:30;14.90;99.90
6788;DHT22;3431;47.966;10.268;2022-08-21T02:24:52;14.90;99.90
6788;DHT22;3431;47.966;10.268;2022-08-21T02:25:14;14.90;99.90
6788;DHT22;3431;47.966;10.268;2022-08-21T02:25:37;14.90;99.90
6788;DHT22;3431;47.966;10.268;2022-08-21T02:26:01;14.90;99.90
6788;DHT22;3431;47.966;10.268;2022-08-21T02:26:23;14.80;99.90
6788;DHT22;3431;47.966;10.268;2022-08-21T02:26:44;14.80;99.90
6788;DHT22;3431;47.966;10.268;2022-08-21T02:27:07;14.80;99.90